Time;durP1;ratioP1;P1;durP2;ratioP2;P2;SDS_P1;SDS_P2;PMS_P1;PMS_P2;Temp;Humidity;BMP_temperature;BMP_pressure;BME280_temperature;BME280_humidity;BME280_pressure;Samples;Min_cycle;Max_cycle;Signal;HPM_P1;HPM_P2
2021/01/16 00:00:35;;;;;;;29.53;17.63;;;;;;;-3.66;85.13;96466.00;5052704;28;20628;-75
2021/01/16 00:03:01;;;;;;;32.87;17.30;;;;;;;-3.67;85.21;96463.50;5053265;28;20239;-75
2021/01/16 00:05:27;;;;;;;30.27;18.20;;;;;;;-3.61;85.20;96460.81;5052859;28;20186;-76
2021/01/16 00:08:05;;;;;;;31.53;18.37;;;;;;;-3.64;85.05;96459.16;5053172;28;20232;-75
2021/01/16 00:10:31;;;;;;;29.20;17.57;;;;;;;-3.63;85.36;96460.00;5070795;28;20205;-75
2021/01/16 00:12:57;;;;;;;31.37;18.53;;;;;;;-3.60;85.84;96455.69;5036570;28;20268;-76
2021/01/16 00:15:23;;;;;;;31.27;18.27;;;;;;;-3.61;85.11;96455.72;5036476;28;20620;-75
2021/01/16 00:18:03;;;;;;;32.73;17.77;;;;;;;-3.59;84.85;96459.06;5052936;28;20195;-74
2021/01/16 00:20:34;;;;;;;33.60;18.37;;;;;;;-3.60;85.21;96454.84;5070793;28;20205;-75
2021/01/16 00:23:00;;;;;;;33.10;17.93;;;;;;;-3.62;85.75;96454.91;5048075;28;20185;-75
2021/01/16 00:25:25;;;;;;;33.00;18.27;;;;;;;-3.61;85.23;96446.41;5057890;28;20213;-75
2021/01/16 00:27:51;;;;;;;32.17;18.03;;;;;;;-3.63;85.84;96452.38;5059561;28;20206;-75
2021/01/16 00:30:18;;;;;;;32.97;18.67;;;;;;;-3.64;84.90;96438.84;5059079;28;20200;-76
2021/01/16 00:32:44;;;;;;;30.73;17.60;;;;;;;-3.61;85.93;96443.03;5059520;28;20656;-75
2021/01/16 00:35:12;;;;;;;33.93;18.40;;;;;;;-3.58;84.96;96442.94;5059607;28;20194;-75
2021/01/16 00:37:38;;;;;;;33.63;18.90;;;;;;;-3.61;85.52;96451.50;5059467;28;20237;-75
2021/01/16 00:40:08;;;;;;;33.30;17.97;;;;;;;-3.60;85.33;96442.16;5059367;28;20231;-75
2021/01/16 00:42:44;;;;;;;31.67;18.53;;;;;;;-3.63;85.16;96443.06;5059325;28;20281;-75
2021/01/16 00:45:11;;;;;;;33.03;18.83;;;;;;;-3.65;85.72;96446.50;5042828;28;20184;-75
2021/01/16 00:47:37;;;;;;;35.67;18.80;;;;;;;-3.66;85.65;96440.59;5059435;28;20239;-75
2021/01/16 00:50:07;;;;;;;31.60;17.07;;;;;;;-3.62;85.20;96442.22;5059271;28;20698;-74
2021/01/16 00:52:33;;;;;;;33.57;18.67;;;;;;;-3.61;85.23;96441.34;5059215;28;20175;-75
2021/01/16 00:54:59;;;;;;;33.00;17.97;;;;;;;-3.61;85.62;96441.34;5059643;28;20184;-75
2021/01/16 00:57:26;;;;;;;33.10;18.37;;;;;;;-3.63;85.18;96443.06;5042919;28;20209;-75
2021/01/16 00:59:51;;;;;;;29.90;18.07;;;;;;;-3.58;85.17;96437.88;5042609;28;20191;-75
2021/01/16 01:02:16;;;;;;;32.13;18.00;;;;;;;-3.61;85.01;96435.41;5077480;28;20680;-75
2021/01/16 01:04:42;;;;;;;31.43;18.50;;;;;;;-3.61;85.42;96432.88;5059585;28;20188;-75
2021/01/16 01:07:12;;;;;;;33.10;17.83;;;;;;;-3.59;85.31;96439.56;5059391;28;20652;-76
2021/01/16 01:09:39;;;;;;;32.63;17.83;;;;;;;-3.57;85.38;96437.81;5059263;28;20218;-75
2021/01/16 01:12:05;;;;;;;30.37;18.07;;;;;;;-3.53;84.83;96439.44;5077132;28;20207;-75
2021/01/16 01:14:30;;;;;;;34.27;18.03;;;;;;;-3.55;85.74;96438.59;5059204;28;20649;-75
2021/01/16 01:16:56;;;;;;;31.00;16.63;;;;;;;-3.57;85.13;96444.63;5042619;28;20182;-76
2021/01/16 01:19:21;;;;;;;35.87;19.60;;;;;;;-3.57;85.66;96444.63;5058999;28;20218;-75
2021/01/16 01:21:46;;;;;;;34.77;19.70;;;;;;;-3.53;85.37;96438.59;5058874;28;20191;-75
2021/01/16 01:24:12;;;;;;;33.00;18.20;;;;;;;-3.49;85.37;96443.53;5059146;28;20189;-75
2021/01/16 01:26:38;;;;;;;31.10;18.47;;;;;;;-3.53;85.60;96441.97;5059003;28;20211;-75
2021/01/16 01:29:03;;;;;;;32.67;19.10;;;;;;;-3.51;85.65;96444.47;5059064;28;20236;-75
2021/01/16 01:31:28;;;;;;;38.60;19.53;;;;;;;-3.55;85.65;96438.59;5059264;28;20233;-76
2021/01/16 01:33:54;;;;;;;32.57;17.67;;;;;;;-3.54;85.49;96439.44;5041374;28;20186;-75
2021/01/16 01:36:20;;;;;;;32.50;17.47;;;;;;;-3.50;85.21;96441.88;5074155;28;20186;-76
2021/01/16 01:38:45;;;;;;;30.20;17.13;;;;;;;-3.44;85.12;96445.97;5055882;28;20198;-75
2021/01/16 01:41:10;;;;;;;31.27;18.37;;;;;;;-3.46;84.95;96443.44;5073964;28;20175;-77
2021/01/16 01:43:36;;;;;;;34.27;19.47;;;;;;;-3.47;85.58;96444.31;5055867;28;20202;-75
2021/01/16 01:46:01;;;;;;;33.23;18.77;;;;;;;-3.48;85.31;96445.19;5073997;28;20186;-75
2021/01/16 01:48:28;;;;;;;32.50;18.27;;;;;;;-3.50;84.99;96446.94;5055679;28;20201;-77
2021/01/16 01:50:54;;;;;;;36.83;18.93;;;;;;;-3.46;85.52;96443.44;5039228;28;20197;-76
2021/01/16 01:53:19;;;;;;;32.57;18.37;;;;;;;-3.45;85.35;96446.81;5038829;28;20183;-77
2021/01/16 01:55:50;;;;;;;40.87;19.90;;;;;;;-3.43;85.72;96447.63;5038850;28;20179;-75
2021/01/16 01:58:16;;;;;;;38.63;19.87;;;;;;;-3.39;85.19;96441.56;5038542;28;20208;-75
2021/01/16 02:00:42;;;;;;;32.80;18.13;;;;;;;-3.39;85.20;96450.91;5055400;28;20225;-76
2021/01/16 02:03:11;;;;;;;29.87;17.33;;;;;;;-3.41;85.63;96438.25;5055570;28;20644;-76
2021/01/16 02:05:36;;;;;;;30.67;17.57;;;;;;;-3.36;85.04;96448.28;5038210;28;20194;-76
2021/01/16 02:08:02;;;;;;;31.70;18.00;;;;;;;-3.42;84.89;96446.75;5073346;28;20206;-76
2021/01/16 02:10:27;;;;;;;33.07;18.57;;;;;;;-3.38;85.24;96450.03;5072765;28;20217;-76
2021/01/16 02:12:54;;;;;;;30.20;17.53;;;;;;;-3.37;85.07;96441.53;5055063;28;20208;-76
2021/01/16 02:15:39;;;;;;;30.83;18.60;;;;;;;-3.43;85.07;96437.47;5038346;28;20254;-77
2021/01/16 02:18:25;;;;;;;33.80;18.60;;;;;;;-3.42;84.64;96439.97;5055478;28;20250;-76
2021/01/16 02:20:53;;;;;;;32.03;16.57;;;;;;;-3.43;84.95;96434.94;5054976;28;20660;-76
2021/01/16 02:23:27;;;;;;;32.33;18.10;;;;;;;-3.44;84.66;96441.72;5055093;28;20189;-75
2021/01/16 02:26:08;;;;;;;32.07;17.73;;;;;;;-3.44;84.84;96441.72;5073006;28;20183;-76
2021/01/16 02:28:36;;;;;;;32.50;19.53;;;;;;;-3.40;84.71;96439.09;5054987;28;20701;-76
2021/01/16 02:31:03;;;;;;;33.40;18.30;;;;;;;-3.42;84.95;96439.13;5038463;28;20205;-75
2021/01/16 02:33:29;;;;;;;32.63;18.13;;;;;;;-3.41;84.39;96440.78;5054848;28;20274;-76
2021/01/16 02:36:20;;;;;;;33.33;19.40;;;;;;;-3.41;85.06;96435.72;5054980;28;20698;-75
2021/01/16 02:39:12;;;;;;;33.93;18.47;;;;;;;-3.40;84.92;96427.22;5054579;28;20206;-75
2021/01/16 02:41:51;;;;;;;33.57;18.07;;;;;;;-3.37;84.36;96434.75;5054586;28;20177;-75
2021/01/16 02:44:25;;;;;;;30.03;17.33;;;;;;;-3.35;85.03;96430.47;5055029;28;20639;-75
2021/01/16 02:47:01;;;;;;;28.73;17.00;;;;;;;-3.35;84.56;96429.66;5038130;28;20187;-75
2021/01/16 02:49:32;;;;;;;30.90;17.30;;;;;;;-3.36;84.79;96435.56;5046974;28;20230;-75
2021/01/16 02:52:07;;;;;;;28.13;17.13;;;;;;;-3.36;84.62;96433.03;5054659;28;20278;-75
2021/01/16 02:54:35;;;;;;;33.93;18.37;;;;;;;-3.43;84.68;96433.22;5054725;28;20187;-75
2021/01/16 02:57:02;;;;;;;30.87;17.43;;;;;;;-3.38;84.57;96429.72;5038042;28;20179;-75
2021/01/16 02:59:27;;;;;;;31.97;18.40;;;;;;;-3.37;85.00;96433.91;5054028;28;20202;-75
2021/01/16 03:01:54;;;;;;;32.27;18.33;;;;;;;-3.38;85.11;96438.16;5037779;28;20185;-76
2021/01/16 03:04:19;;;;;;;31.47;17.87;;;;;;;-3.36;85.11;96428.78;5037549;28;20216;-76
2021/01/16 03:06:48;;;;;;;34.00;18.20;;;;;;;-3.36;84.64;96436.41;5037577;28;20219;-75
2021/01/16 03:09:14;;;;;;;28.87;16.57;;;;;;;-3.37;84.53;96434.75;5053800;28;20262;-75
2021/01/16 03:11:39;;;;;;;33.77;18.20;;;;;;;-3.40;84.54;96432.28;5053877;28;20619;-75
2021/01/16 03:14:05;;;;;;;29.67;17.60;;;;;;;-3.42;84.59;96423.91;5054198;28;20257;-75
2021/01/16 03:16:33;;;;;;;31.63;17.23;;;;;;;-3.43;84.85;96432.38;5054183;28;20193;-76
2021/01/16 03:19:01;;;;;;;31.03;17.33;;;;;;;-3.39;84.75;96433.13;5053903;28;20316;-75
2021/01/16 03:21:26;;;;;;;29.97;16.83;;;;;;;-3.42;84.96;96427.25;5071718;28;20189;-76
2021/01/16 03:23:51;;;;;;;29.80;17.70;;;;;;;-3.42;85.01;96424.72;5054099;28;20647;-75
2021/01/16 03:26:17;;;;;;;34.93;18.17;;;;;;;-3.44;84.63;96428.19;5054184;28;20213;-75
2021/01/16 03:28:42;;;;;;;29.70;16.90;;;;;;;-3.51;84.21;96426.69;5053277;28;20196;-77
2021/01/16 03:31:07;;;;;;;30.67;17.43;;;;;;;-3.49;84.94;96424.94;5071718;28;20240;-76
2021/01/16 03:33:32;;;;;;;29.27;17.43;;;;;;;-3.48;85.07;96429.13;5053670;28;20272;-76
2021/01/16 03:35:58;;;;;;;31.27;17.40;;;;;;;-3.46;84.40;96437.53;5071514;28;20703;-76
2021/01/16 03:38:23;;;;;;;33.23;17.60;;;;;;;-3.46;84.64;96427.38;5036761;28;20699;-76
2021/01/16 03:40:48;;;;;;;33.67;17.20;;;;;;;-3.45;84.68;96431.56;5071240;28;20172;-77
2021/01/16 03:43:14;;;;;;;32.50;17.10;;;;;;;-3.43;85.18;96429.84;5071368;28;20185;-76
2021/01/16 03:45:39;;;;;;;29.37;17.87;;;;;;;-3.44;85.19;96425.66;5053643;28;20191;-75
2021/01/16 03:48:06;;;;;;;28.33;16.50;;;;;;;-3.44;84.64;96425.66;5071187;28;20245;-76
2021/01/16 03:50:31;;;;;;;29.87;17.73;;;;;;;-3.43;84.47;96423.06;5071182;28;20202;-76
2021/01/16 03:52:56;;;;;;;30.07;17.83;;;;;;;-3.44;84.01;96421.41;5071452;28;20184;-75
2021/01/16 03:55:22;;;;;;;33.47;17.90;;;;;;;-3.45;84.93;96427.31;5053402;28;20223;-75
2021/01/16 03:57:47;;;;;;;29.13;17.07;;;;;;;-3.45;84.43;96434.13;5071065;28;20274;-75
2021/01/16 04:00:12;;;;;;;33.30;18.30;;;;;;;-3.46;84.79;96423.13;5070623;28;20264;-75
2021/01/16 04:02:38;;;;;;;29.57;18.40;;;;;;;-3.45;84.63;96432.41;5036399;28;20666;-76
2021/01/16 04:05:04;;;;;;;27.43;17.20;;;;;;;-3.47;84.39;96433.34;5053254;28;20179;-76
2021/01/16 04:07:29;;;;;;;29.60;16.90;;;;;;;-3.48;84.48;96429.97;5052844;28;20203;-75
2021/01/16 04:09:56;;;;;;;31.23;18.57;;;;;;;-3.46;84.44;96427.38;5052806;28;20189;-76
2021/01/16 04:12:22;;;;;;;35.77;18.23;;;;;;;-3.45;84.75;96434.13;5053425;28;20205;-76
2021/01/16 04:14:47;;;;;;;32.73;18.50;;;;;;;-3.45;84.21;96434.94;5071323;28;20194;-75
2021/01/16 04:17:12;;;;;;;32.23;18.37;;;;;;;-3.45;84.38;96439.19;5053035;28;20175;-76
2021/01/16 04:19:38;;;;;;;30.23;17.60;;;;;;;-3.44;84.76;96435.81;5070479;28;20187;-77
2021/01/16 04:22:04;;;;;;;31.57;17.07;;;;;;;-3.47;84.00;96435.88;5053096;28;20619;-75
2021/01/16 04:24:29;;;;;;;30.60;18.47;;;;;;;-3.44;83.83;96440.88;5053069;28;20300;-75
2021/01/16 04:26:55;;;;;;;30.77;18.17;;;;;;;-3.44;83.62;96428.19;5053038;28;20642;-76
2021/01/16 04:29:20;;;;;;;30.33;17.13;;;;;;;-3.47;83.62;96430.78;5035650;28;20221;-76
2021/01/16 04:31:47;;;;;;;30.30;16.90;;;;;;;-3.46;84.05;96435.00;5052874;28;20206;-76
2021/01/16 04:34:14;;;;;;;28.70;15.87;;;;;;;-3.45;84.02;96429.88;5052876;28;20186;-76
2021/01/16 04:36:39;;;;;;;31.97;16.67;;;;;;;-3.46;83.72;96430.75;5070941;28;20505;-76
2021/01/16 04:39:04;;;;;;;30.03;17.30;;;;;;;-3.51;83.26;96431.75;5052457;28;20198;-75
2021/01/16 04:41:31;;;;;;;36.33;18.40;;;;;;;-3.52;84.18;96425.03;5053030;28;20646;-75
2021/01/16 04:43:57;;;;;;;31.50;18.00;;;;;;;-3.50;83.60;96425.81;5053166;28;20189;-75
2021/01/16 04:46:23;;;;;;;29.87;16.50;;;;;;;-3.53;83.95;96423.34;5036171;28;20192;-76
2021/01/16 04:49:01;;;;;;;31.30;17.13;;;;;;;-3.51;83.62;96427.50;5035654;28;20203;-75
2021/01/16 04:51:31;;;;;;;29.37;17.30;;;;;;;-3.53;83.68;96425.91;5035770;28;20230;-76
2021/01/16 04:53:56;;;;;;;30.87;17.17;;;;;;;-3.54;84.24;96424.22;5052820;28;20177;-75
2021/01/16 04:56:22;;;;;;;30.73;17.03;;;;;;;-3.51;84.11;96424.97;5035860;28;20194;-75
2021/01/16 04:58:47;;;;;;;26.67;16.13;;;;;;;-3.48;83.55;96424.06;5035834;28;20195;-76
2021/01/16 05:01:13;;;;;;;28.13;16.57;;;;;;;-3.52;83.45;96422.47;5052543;28;20778;-77
2021/01/16 05:03:42;;;;;;;29.43;17.27;;;;;;;-3.54;83.90;96419.13;5070417;28;20551;-76
2021/01/16 05:06:09;;;;;;;28.80;17.10;;;;;;;-3.53;83.97;96421.66;5052994;28;20637;-76
2021/01/16 05:08:37;;;;;;;31.33;18.13;;;;;;;-3.54;83.70;96412.34;5070059;28;20212;-76
2021/01/16 05:11:05;;;;;;;32.03;17.47;;;;;;;-3.53;83.37;96421.66;5048166;28;20210;-76
2021/01/16 05:13:41;;;;;;;28.10;17.40;;;;;;;-3.51;84.24;96419.91;5039423;28;20179;-75
2021/01/16 05:16:07;;;;;;;28.47;16.13;;;;;;;-3.49;83.51;96417.31;5040049;28;20611;-76
2021/01/16 05:18:37;;;;;;;29.43;16.83;;;;;;;-3.49;83.41;96419.84;5039421;28;20240;-76
2021/01/16 05:21:02;;;;;;;33.10;17.77;;;;;;;-3.49;83.32;96424.94;5057018;28;20199;-77
2021/01/16 05:23:27;;;;;;;32.63;17.20;;;;;;;-3.48;83.37;96424.06;5056037;28;20686;-76
2021/01/16 05:25:53;;;;;;;31.07;18.27;;;;;;;-3.51;83.11;96421.59;5056258;28;20663;-76
2021/01/16 05:28:23;;;;;;;29.20;17.90;;;;;;;-3.51;83.34;96419.91;5073811;28;20239;-76
2021/01/16 05:30:54;;;;;;;33.73;19.27;;;;;;;-3.53;83.73;96416.56;5039636;28;20553;-76
2021/01/16 05:33:22;;;;;;;36.93;21.30;;;;;;;-3.51;83.85;96419.91;5073654;28;20189;-76
2021/01/16 05:35:52;;;;;;;36.47;20.10;;;;;;;-3.54;83.25;96425.03;5056273;28;20180;-75
2021/01/16 05:38:23;;;;;;;34.13;20.13;;;;;;;-3.55;84.06;96417.47;5055779;28;20199;-76
2021/01/16 05:40:48;;;;;;;31.03;19.50;;;;;;;-3.56;83.99;96414.09;5055556;28;20296;-76
2021/01/16 05:43:18;;;;;;;31.20;17.27;;;;;;;-3.61;83.84;96417.66;5035762;28;20272;-75
2021/01/16 05:45:43;;;;;;;34.80;17.23;;;;;;;-3.65;83.91;96416.06;5055837;28;20260;-76
2021/01/16 05:48:10;;;;;;;29.07;17.10;;;;;;;-3.67;84.12;96405.13;5039006;28;20267;-76
2021/01/16 05:50:39;;;;;;;27.17;16.40;;;;;;;-3.67;83.59;96402.56;5054781;28;20204;-76
2021/01/16 05:53:06;;;;;;;31.00;17.83;;;;;;;-3.71;84.25;96404.34;5055656;28;20211;-76
2021/01/16 05:55:32;;;;;;;31.10;17.30;;;;;;;-3.69;83.70;96399.25;5055257;28;20235;-75
2021/01/16 05:58:06;;;;;;;29.43;17.37;;;;;;;-3.73;83.73;96403.56;5055906;28;20201;-76
2021/01/16 06:00:39;;;;;;;34.20;18.47;;;;;;;-3.71;83.79;96397.59;5055304;28;20322;-77
2021/01/16 06:03:06;;;;;;;33.47;17.53;;;;;;;-3.68;84.09;96401.75;5073280;28;20178;-76
2021/01/16 06:05:33;;;;;;;26.17;16.50;;;;;;;-3.69;83.88;96404.31;5055404;28;20189;-76
2021/01/16 06:07:58;;;;;;;32.30;17.40;;;;;;;-3.71;84.07;96405.22;5038769;28;20272;-76
2021/01/16 06:10:24;;;;;;;31.17;16.60;;;;;;;-3.71;83.39;96397.59;5038613;28;20335;-76
2021/01/16 06:12:51;;;;;;;28.43;16.40;;;;;;;-3.71;83.43;96400.13;5055514;28;20665;-76
2021/01/16 06:15:18;;;;;;;25.73;16.50;;;;;;;-3.71;83.30;96401.81;5072912;28;20179;-76
2021/01/16 06:17:46;;;;;;;28.57;16.50;;;;;;;-3.73;83.56;96399.31;5055313;28;20309;-76
2021/01/16 06:20:13;;;;;;;30.27;16.87;;;;;;;-3.74;84.04;96397.66;5055340;28;20192;-76
2021/01/16 06:22:40;;;;;;;30.20;17.57;;;;;;;-3.72;84.06;96403.50;5054710;28;20665;-76
2021/01/16 06:25:15;;;;;;;29.87;16.23;;;;;;;-3.68;83.84;96396.66;5055307;28;20271;-76
2021/01/16 06:27:45;;;;;;;28.80;16.67;;;;;;;-3.71;83.96;96389.97;5055111;28;20204;-76
2021/01/16 06:30:22;;;;;;;28.43;16.47;;;;;;;-3.62;83.79;96383.81;5055129;28;20629;-77
2021/01/16 06:32:49;;;;;;;24.27;15.43;;;;;;;-3.78;83.53;96380.84;5054968;28;20185;-76
2021/01/16 06:35:15;;;;;;;25.13;14.97;;;;;;;-3.75;83.64;96383.28;5054915;28;20599;-76
2021/01/16 06:37:49;;;;;;;25.53;15.17;;;;;;;-3.75;83.21;96390.91;5022608;28;20255;-76
2021/01/16 06:40:28;;;;;;;26.13;16.33;;;;;;;-3.72;83.22;96385.75;5054844;28;20276;-76
2021/01/16 06:42:54;;;;;;;29.23;16.20;;;;;;;-3.74;83.26;96382.41;5054985;28;20238;-76
2021/01/16 06:45:23;;;;;;;34.23;18.10;;;;;;;-3.74;83.28;96377.34;5054524;28;20185;-77
2021/01/16 06:47:55;;;;;;;42.47;20.77;;;;;;;-3.71;83.54;96378.97;5054938;28;20225;-76
2021/01/16 06:50:20;;;;;;;40.37;19.27;;;;;;;-3.73;83.49;96376.47;5072000;28;20189;-76
2021/01/16 06:52:46;;;;;;;49.97;24.50;;;;;;;-3.71;83.17;96382.34;5037926;28;20186;-76
2021/01/16 06:55:16;;;;;;;25.20;15.30;;;;;;;-3.72;82.60;96380.66;5054091;28;20196;-76
2021/01/16 06:57:41;;;;;;;26.90;15.37;;;;;;;-3.67;83.34;96384.81;5037813;28;20285;-77
2021/01/16 07:00:08;;;;;;;26.80;15.73;;;;;;;-3.64;82.96;96388.06;5071926;28;20270;-76
2021/01/16 07:02:38;;;;;;;25.87;15.73;;;;;;;-3.59;82.80;96395.59;5054055;28;20190;-76
2021/01/16 07:05:16;;;;;;;26.47;16.23;;;;;;;-3.59;82.14;96393.06;5054367;28;20177;-76
2021/01/16 07:07:45;;;;;;;24.80;15.03;;;;;;;-3.60;81.85;96386.31;5072161;28;20206;-76
2021/01/16 07:10:12;;;;;;;22.70;13.80;;;;;;;-3.57;82.63;96386.22;5054618;28;20228;-76
2021/01/16 07:12:41;;;;;;;26.23;14.80;;;;;;;-3.56;82.66;96387.88;5053908;28;20209;-76
2021/01/16 07:15:07;;;;;;;25.63;15.00;;;;;;;-3.57;82.22;96383.69;5054387;28;20310;-76
2021/01/16 07:17:34;;;;;;;24.50;14.77;;;;;;;-3.57;82.38;96392.13;5054187;28;20680;-76
2021/01/16 07:19:59;;;;;;;23.23;14.20;;;;;;;-3.55;82.89;96392.06;5071761;28;20193;-76
2021/01/16 07:22:29;;;;;;;24.57;15.23;;;;;;;-3.54;82.23;96399.66;5036397;28;20177;-76
2021/01/16 07:24:59;;;;;;;23.57;14.67;;;;;;;-3.53;82.20;96397.97;5037344;28;20694;-77
2021/01/16 07:27:27;;;;;;;27.07;15.70;;;;;;;-3.54;82.79;96398.81;5037194;28;20177;-78
2021/01/16 07:30:00;;;;;;;27.20;16.30;;;;;;;-3.55;82.66;96399.69;5053771;28;20320;-77
2021/01/16 07:32:31;;;;;;;28.20;16.70;;;;;;;-3.59;82.81;96405.75;5071211;28;20211;-77
2021/01/16 07:34:57;;;;;;;31.23;17.90;;;;;;;-3.64;83.29;96403.31;5070339;28;20643;-75
2021/01/16 07:37:22;;;;;;;32.77;19.17;;;;;;;-3.63;83.60;96401.59;5028858;28;20201;-75
2021/01/16 07:39:48;;;;;;;31.30;19.40;;;;;;;-3.63;84.23;96394.00;5056891;28;20184;-75
2021/01/16 07:42:14;;;;;;;34.17;20.10;;;;;;;-3.62;83.84;96398.19;5037521;28;20193;-75
2021/01/16 07:44:42;;;;;;;37.70;20.67;;;;;;;-3.62;84.65;96406.66;5071282;28;20644;-75
2021/01/16 07:47:17;;;;;;;32.43;19.23;;;;;;;-3.64;84.53;96405.84;5052849;28;20183;-75
2021/01/16 07:49:51;;;;;;;30.97;18.40;;;;;;;-3.62;84.76;96406.66;5053323;28;20178;-75
2021/01/16 07:52:22;;;;;;;30.87;17.70;;;;;;;-3.59;84.04;96405.75;5071192;28;20356;-77
2021/01/16 07:54:58;;;;;;;27.53;16.87;;;;;;;-3.57;84.12;96398.91;5036744;28;20740;-75
2021/01/16 07:57:25;;;;;;;28.23;16.97;;;;;;;-3.51;84.21;96401.28;5046026;28;20203;-75
2021/01/16 07:59:51;;;;;;;32.67;19.03;;;;;;;-3.49;84.29;96400.38;5053145;28;20185;-76
2021/01/16 08:02:26;;;;;;;31.90;17.57;;;;;;;-3.49;84.09;96402.06;5053500;28;20188;-75
2021/01/16 08:05:17;;;;;;;31.73;18.07;;;;;;;-3.45;83.81;96404.47;5053274;28;20219;-76
2021/01/16 08:08:04;;;;;;;26.67;15.53;;;;;;;-3.51;83.94;96398.75;5053517;28;20200;-75
2021/01/16 08:10:32;;;;;;;29.27;17.00;;;;;;;-3.48;83.45;96388.50;5052714;28;20190;-76
2021/01/16 08:12:57;;;;;;;28.63;16.33;;;;;;;-3.45;83.99;96403.63;5053060;28;20265;-75
2021/01/16 08:15:28;;;;;;;28.07;16.57;;;;;;;-3.40;83.84;96396.75;5053256;28;20185;-75
2021/01/16 08:17:54;;;;;;;26.73;16.33;;;;;;;-3.37;83.81;96393.28;5071099;28;20201;-75
2021/01/16 08:20:27;;;;;;;27.30;16.23;;;;;;;-3.38;83.87;96389.91;5052792;28;20355;-75
2021/01/16 08:22:55;;;;;;;27.97;16.33;;;;;;;-3.31;83.69;96393.09;5053986;28;20198;-75
2021/01/16 08:25:25;;;;;;;24.67;15.17;;;;;;;-3.37;83.96;96385.66;5069694;28;20185;-75
2021/01/16 08:27:53;;;;;;;26.73;16.37;;;;;;;-3.31;84.06;96383.78;5036146;28;20293;-76
2021/01/16 08:30:20;;;;;;;26.67;16.37;;;;;;;-3.31;83.94;96390.56;5052671;28;20560;-76
2021/01/16 08:32:57;;;;;;;30.97;17.43;;;;;;;-3.26;83.47;96383.66;5053399;28;20189;-76
2021/01/16 08:35:39;;;;;;;34.27;18.50;;;;;;;-3.19;83.68;96391.03;5053146;28;20586;-77
2021/01/16 08:38:19;;;;;;;23.87;15.90;;;;;;;-3.24;82.75;96380.19;5070787;28;20203;-76
2021/01/16 08:41:02;;;;;;;27.50;15.70;;;;;;;-3.19;82.92;96375.81;5070748;28;20179;-77
2021/01/16 08:43:42;;;;;;;26.13;16.20;;;;;;;-3.19;82.86;96374.97;5053480;28;20544;-77
2021/01/16 08:46:11;;;;;;;33.57;18.33;;;;;;;-3.13;82.84;96370.53;5034534;28;20182;-77
2021/01/16 08:48:37;;;;;;;24.97;15.33;;;;;;;-3.12;82.20;96376.47;5074591;28;20280;-76
2021/01/16 08:51:27;;;;;;;21.77;14.33;;;;;;;-2.95;82.26;96376.78;5056836;28;20214;-75
2021/01/16 08:54:20;;;;;;;19.33;12.67;;;;;;;-2.97;81.43;96381.09;5040569;28;20690;-75
2021/01/16 08:56:50;;;;;;;20.40;12.50;;;;;;;-2.88;81.00;96377.44;5056349;28;20672;-76
2021/01/16 08:59:27;;;;;;;20.37;13.10;;;;;;;-2.87;81.13;96372.31;5040089;28;20575;-75
2021/01/16 09:01:54;;;;;;;16.77;11.00;;;;;;;-2.96;79.67;96376.84;5056661;28;20185;-76
2021/01/16 09:04:24;;;;;;;16.13;12.33;;;;;;;-2.77;80.49;96372.03;5056821;28;20221;-76
2021/01/16 09:06:51;;;;;;;15.10;10.80;;;;;;;-2.75;79.00;96391.44;5071323;28;20223;-76
2021/01/16 09:09:24;;;;;;;17.90;11.33;;;;;;;-2.67;79.92;96396.28;5056023;28;20561;-74
2021/01/16 09:12:08;;;;;;;16.60;10.60;;;;;;;-2.72;78.92;96393.91;5073928;28;20210;-75
2021/01/16 09:14:35;;;;;;;16.60;10.27;;;;;;;-2.72;78.37;96399.00;5069777;28;20186;-75
2021/01/16 09:17:20;;;;;;;15.30;10.17;;;;;;;-2.88;78.72;96395.25;5056457;28;20663;-75
2021/01/16 09:19:57;;;;;;;18.40;10.60;;;;;;;-2.80;78.67;96397.56;5039374;28;20176;-74
2021/01/16 09:22:27;;;;;;;16.63;10.80;;;;;;;-2.85;79.34;96400.22;5056252;28;20186;-76
2021/01/16 09:25:13;;;;;;;19.27;10.80;;;;;;;-2.81;79.29;96400.97;5072720;28;20266;-74
2021/01/16 09:27:45;;;;;;;18.37;11.33;;;;;;;-2.80;79.12;96408.56;5073870;28;20223;-74
2021/01/16 09:30:19;;;;;;;16.17;11.20;;;;;;;-2.71;78.80;96408.28;5039282;28;20642;-75
2021/01/16 09:32:44;;;;;;;20.73;13.13;;;;;;;-2.70;79.64;96415.03;5054413;28;20260;-74
2021/01/16 09:35:10;;;;;;;20.93;13.60;;;;;;;-2.69;79.53;96416.69;5073422;28;20594;-74
2021/01/16 09:37:35;;;;;;;20.80;14.47;;;;;;;-2.61;79.75;96416.47;5056046;28;20693;-74
2021/01/16 09:40:11;;;;;;;22.20;13.30;;;;;;;-2.53;79.81;96416.22;5034579;28;20215;-75
2021/01/16 09:42:45;;;;;;;20.93;13.63;;;;;;;-2.41;79.36;96414.13;5055713;28;20215;-74
2021/01/16 09:45:11;;;;;;;20.17;13.23;;;;;;;-2.53;78.89;96408.59;5039449;28;20207;-76
2021/01/16 09:47:45;;;;;;;18.67;12.37;;;;;;;-2.41;78.83;96400.56;5055695;28;20207;-75
2021/01/16 09:50:15;;;;;;;20.50;12.67;;;;;;;-2.46;78.19;96407.53;5055466;28;20183;-74
2021/01/16 09:53:03;;;;;;;18.87;13.23;;;;;;;-2.54;78.71;96396.75;5056054;28;20210;-74
2021/01/16 09:55:32;;;;;;;19.67;12.73;;;;;;;-2.51;78.41;96400.03;5055897;28;20191;-74
2021/01/16 09:57:59;;;;;;;21.37;13.60;;;;;;;-2.51;78.35;96399.19;5055439;28;20209;-74
2021/01/16 10:00:33;;;;;;;20.80;13.40;;;;;;;-2.55;78.64;96395.09;5036596;28;20646;-75
2021/01/16 10:03:03;;;;;;;20.30;12.40;;;;;;;-2.69;77.85;96387.88;5039084;28;20178;-74
2021/01/16 10:05:36;;;;;;;19.50;11.57;;;;;;;-2.63;78.35;96383.44;5055513;28;20183;-74
2021/01/16 10:08:03;;;;;;;18.90;12.10;;;;;;;-2.76;77.98;96383.88;5039067;28;20209;-74
2021/01/16 10:10:41;;;;;;;28.40;16.43;;;;;;;-2.74;79.45;96375.34;5072492;28;20223;-74
2021/01/16 10:13:09;;;;;;;25.67;15.83;;;;;;;-2.72;79.07;96370.19;5055580;28;20182;-75
2021/01/16 10:15:43;;;;;;;25.67;15.17;;;;;;;-2.72;78.41;96363.41;5038845;28;20181;-75
2021/01/16 10:18:17;;;;;;;20.37;13.47;;;;;;;-2.67;78.45;96355.63;5055731;28;20228;-75
2021/01/16 10:20:42;;;;;;;49.67;23.37;;;;;;;-2.68;78.37;96353.94;5055490;28;20220;-75
2021/01/16 10:23:07;;;;;;;30.70;17.07;;;;;;;-2.70;78.94;96351.47;5038754;28;20205;-76
2021/01/16 10:25:38;;;;;;;26.63;16.37;;;;;;;-2.69;79.31;96350.59;5055723;28;20737;-75
2021/01/16 10:28:05;;;;;;;25.77;16.10;;;;;;;-2.57;78.93;96352.72;5038596;28;20201;-76
2021/01/16 10:30:30;;;;;;;25.20;15.77;;;;;;;-2.51;79.00;96341.53;5054330;28;20588;-75
2021/01/16 10:32:57;;;;;;;24.43;15.63;;;;;;;-2.48;78.82;96338.88;5072966;28;20182;-74
2021/01/16 10:35:27;;;;;;;23.20;14.43;;;;;;;-2.73;78.25;96340.56;5054855;28;20196;-73
2021/01/16 10:37:55;;;;;;;22.30;15.60;;;;;;;-2.66;78.44;96332.66;5054726;28;20204;-73
2021/01/16 10:40:22;;;;;;;29.97;17.00;;;;;;;-2.56;78.82;96328.16;5054656;28;20183;-74
2021/01/16 10:42:51;;;;;;;27.87;18.80;;;;;;;-2.59;78.60;96321.44;5055161;28;20281;-73
2021/01/16 10:45:18;;;;;;;26.63;15.87;;;;;;;-2.42;78.47;96327.69;5054752;28;20202;-74
2021/01/16 10:47:45;;;;;;;22.80;15.60;;;;;;;-2.46;77.82;96331.22;5054311;28;20214;-73
2021/01/16 10:50:15;;;;;;;27.20;23.00;;;;;;;-2.43;77.57;96321.78;5054805;28;20258;-74
2021/01/16 10:52:41;;;;;;;45.43;35.17;;;;;;;-2.32;77.71;96318.88;5054652;28;20264;-74
2021/01/16 10:55:09;;;;;;;37.60;26.23;;;;;;;-2.14;76.96;96315.69;5054598;28;20184;-75
2021/01/16 10:57:40;;;;;;;26.80;18.43;;;;;;;-2.14;76.83;96309.78;5068609;28;20209;-75
2021/01/16 11:00:11;;;;;;;22.27;13.80;;;;;;;-2.08;75.64;96305.31;5072210;28;20176;-74
2021/01/16 11:02:39;;;;;;;19.13;12.43;;;;;;;-1.97;75.78;96306.66;5072502;28;20574;-73
2021/01/16 11:05:25;;;;;;;24.23;14.97;;;;;;;-1.85;76.05;96304.53;5071978;28;20191;-72
2021/01/16 11:07:52;;;;;;;20.47;13.20;;;;;;;-1.77;74.80;96306.78;5054150;28;20210;-74
2021/01/16 11:10:29;;;;;;;20.73;13.03;;;;;;;-1.43;74.43;96304.69;5054320;28;20279;-75
2021/01/16 11:12:54;;;;;;;22.40;13.83;;;;;;;-1.39;73.84;96299.50;5053895;28;20278;-74
2021/01/16 11:15:30;;;;;;;19.13;12.07;;;;;;;-1.39;73.18;96294.41;5054184;28;20264;-74
2021/01/16 11:17:59;;;;;;;19.73;12.97;;;;;;;-1.23;73.50;96292.94;5054168;28;20249;-75
2021/01/16 11:20:32;;;;;;;19.93;13.43;;;;;;;-1.32;73.34;96293.28;5053931;28;20185;-75
2021/01/16 11:23:03;;;;;;;20.93;13.73;;;;;;;-1.47;73.89;96285.31;5036961;28;20185;-74
2021/01/16 11:25:49;;;;;;;19.43;12.73;;;;;;;-1.74;73.86;96286.31;5072054;28;20188;-74